createdAt,value
2018-09-09T00:00:13.484Z,57.63
2018-09-09T00:02:43.030Z,57.40
2018-09-09T00:05:12.735Z,57.31
2018-09-09T00:07:42.176Z,58.08
2018-09-09T00:10:11.708Z,57.99
2018-09-09T00:12:41.150Z,58.21
2018-09-09T00:15:10.658Z,57.42
2018-09-09T00:17:40.263Z,56.90
2018-09-09T00:20:10.645Z,57.49
2018-09-09T00:22:40.310Z,58.02
2018-09-09T00:25:09.945Z,57.15
2018-09-09T00:27:40.797Z,57.60
2018-09-09T00:30:10.602Z,57.41
2018-09-09T00:32:40.478Z,57.04
2018-09-09T00:35:10.128Z,57.17
2018-09-09T00:37:39.637Z,56.62
2018-09-09T00:40:09.088Z,56.77
2018-09-09T00:42:38.639Z,57.38
2018-09-09T00:45:08.055Z,56.79
2018-09-09T00:47:37.476Z,55.87
2018-09-09T00:50:12.753Z,56.69
2018-09-09T00:52:47.377Z,55.80
2018-09-09T00:55:17.264Z,57.27
2018-09-09T00:57:46.741Z,56.71
2018-09-09T01:00:20.959Z,56.63
2018-09-09T01:02:50.465Z,56.94
2018-09-09T01:05:19.805Z,57.04
2018-09-09T01:07:50.099Z,56.47
2018-09-09T01:10:19.635Z,57.02
2018-09-09T01:12:49.197Z,57.33
2018-09-09T01:15:19.496Z,56.61
2018-09-09T01:17:48.911Z,55.75
2018-09-09T01:20:18.871Z,56.37
2018-09-09T01:22:48.682Z,56.91
2018-09-09T01:25:18.072Z,57.09
2018-09-09T01:27:47.493Z,56.35
2018-09-09T01:30:17.220Z,56.59
2018-09-09T01:32:46.650Z,57.39
2018-09-09T01:35:16.072Z,57.69
2018-09-09T01:37:46.007Z,58.94
2018-09-09T01:40:15.708Z,58.47
2018-09-09T01:42:45.146Z,57.84
2018-09-09T01:45:14.670Z,56.65
2018-09-09T01:47:44.133Z,57.50
2018-09-09T01:50:13.532Z,57.41
2018-09-09T01:52:43.658Z,57.83
2018-09-09T01:55:13.136Z,58.12
2018-09-09T01:57:42.608Z,58.56
2018-09-09T02:00:12.370Z,58.51
2018-09-09T02:02:41.749Z,58.84
2018-09-09T02:05:11.171Z,58.40
2018-09-09T02:07:40.969Z,59.10
2018-09-09T02:10:10.748Z,58.01
2018-09-09T02:12:40.284Z,58.23
2018-09-09T02:15:10.062Z,58.58
2018-09-09T02:17:39.667Z,59.37
2018-09-09T02:20:09.095Z,59.01
2018-09-09T02:22:39.504Z,59.79
2018-09-09T02:25:09.060Z,59.53
2018-09-09T02:27:38.424Z,59.76
2018-09-09T02:30:08.014Z,59.92
2018-09-09T02:32:37.794Z,59.99
2018-09-09T02:35:07.264Z,60.52
2018-09-09T02:37:37.002Z,60.66
2018-09-09T02:40:06.582Z,60.64
2018-09-09T02:42:36.182Z,61.83
2018-09-09T02:45:05.858Z,60.50
2018-09-09T02:47:35.400Z,60.54
2018-09-09T02:50:04.832Z,61.44
2018-09-09T02:52:34.300Z,62.23
2018-09-09T02:55:04.256Z,62.21
2018-09-09T02:57:33.686Z,62.16
2018-09-09T03:00:04.228Z,61.33
2018-09-09T03:02:33.663Z,61.71
2018-09-09T03:05:03.254Z,61.77
2018-09-09T03:07:32.797Z,61.09
2018-09-09T03:10:02.140Z,61.20
2018-09-09T03:12:32.157Z,60.81
2018-09-09T03:15:01.927Z,60.58
2018-09-09T03:17:31.582Z,61.60
2018-09-09T03:20:01.006Z,61.27
2018-09-09T03:22:31.378Z,61.71
2018-09-09T03:25:00.971Z,61.37
2018-09-09T03:27:30.485Z,61.18
2018-09-09T03:30:00.039Z,61.69
2018-09-09T03:32:29.627Z,61.52
2018-09-09T03:34:59.253Z,61.60
2018-09-09T03:37:28.932Z,62.15
2018-09-09T03:39:58.431Z,63.20
2018-09-09T03:42:28.170Z,61.82
2018-09-09T03:44:58.180Z,62.75
2018-09-09T03:47:27.735Z,62.74
2018-09-09T03:49:57.238Z,62.68
2018-09-09T03:52:26.816Z,63.07
2018-09-09T03:54:56.270Z,63.71
2018-09-09T03:57:25.776Z,63.59
2018-09-09T03:59:55.131Z,63.40
2018-09-09T04:02:24.543Z,64.35
2018-09-09T04:04:54.110Z,63.59
2018-09-09T04:07:23.942Z,63.38
2018-09-09T04:09:53.786Z,63.77
2018-09-09T04:12:23.320Z,64.68
2018-09-09T04:14:52.808Z,64.70
2018-09-09T04:17:22.384Z,65.18
2018-09-09T04:19:51.783Z,64.07
2018-09-09T04:22:21.222Z,64.68
2018-09-09T04:24:50.575Z,64.17
2018-09-09T04:27:20.119Z,64.00
2018-09-09T04:29:49.852Z,63.02
2018-09-09T04:32:19.202Z,63.71
2018-09-09T04:34:48.551Z,63.99
2018-09-09T04:37:17.951Z,64.77
2018-09-09T04:39:47.304Z,64.73
2018-09-09T04:42:16.594Z,63.79
2018-09-09T04:44:45.950Z,63.77
2018-09-09T04:47:15.354Z,63.11
2018-09-09T04:49:44.685Z,62.99
2018-09-09T04:52:14.459Z,63.22
2018-09-09T04:54:43.927Z,63.50
2018-09-09T04:57:13.238Z,63.85
2018-09-09T04:59:42.673Z,62.87
2018-09-09T05:02:12.074Z,62.83
2018-09-09T05:04:41.533Z,63.79
2018-09-09T05:07:11.036Z,63.30
2018-09-09T05:09:40.454Z,64.00
2018-09-09T05:12:09.847Z,62.66
2018-09-09T05:14:39.352Z,62.22
2018-09-09T05:17:08.832Z,62.33
2018-09-09T05:19:38.210Z,62.21
2018-09-09T05:22:07.619Z,61.26
2018-09-09T05:24:37.018Z,61.52
2018-09-09T05:27:06.468Z,62.15
2018-09-09T05:29:35.903Z,60.81
2018-09-09T05:32:05.304Z,60.16
2018-09-09T05:34:34.915Z,60.71
2018-09-09T05:37:04.552Z,61.00
2018-09-09T05:39:34.403Z,60.11
2018-09-09T05:42:05.326Z,59.77
2018-09-09T05:44:35.108Z,59.47
2018-09-09T05:47:04.549Z,59.32
2018-09-09T05:49:33.962Z,59.07
2018-09-09T05:52:03.500Z,58.83
2018-09-09T05:54:33.136Z,59.06
2018-09-09T05:57:02.768Z,58.80
2018-09-09T05:59:32.168Z,58.82
2018-09-09T06:02:01.506Z,58.04
2018-09-09T06:04:31.320Z,57.88
2018-09-09T06:07:07.719Z,57.55
2018-09-09T06:09:37.188Z,58.14
2018-09-09T06:12:06.695Z,57.53
2018-09-09T06:14:36.098Z,57.11
2018-09-09T06:17:06.412Z,56.79
2018-09-09T06:19:35.803Z,56.88
2018-09-09T06:22:05.264Z,56.22
2018-09-09T06:24:34.691Z,55.18
2018-09-09T06:27:04.069Z,54.92
2018-09-09T06:29:33.559Z,55.14
2018-09-09T06:32:02.979Z,54.32
2018-09-09T06:34:33.164Z,53.62
2018-09-09T06:37:02.647Z,53.84
2018-09-09T06:39:32.071Z,53.29
2018-09-09T06:42:01.539Z,52.41
2018-09-09T06:44:30.855Z,53.05
2018-09-09T06:47:00.255Z,52.36
2018-09-09T06:49:29.574Z,51.16
2018-09-09T06:51:59.078Z,50.97
2018-09-09T06:54:28.993Z,50.94
2018-09-09T06:56:58.291Z,51.72
2018-09-09T06:59:27.672Z,51.24
2018-09-09T07:01:58.545Z,51.98
2018-09-09T07:04:27.936Z,51.94
2018-09-09T07:06:57.291Z,52.08
2018-09-09T07:09:26.676Z,53.38
2018-09-09T07:11:56.213Z,53.82
2018-09-09T07:14:25.733Z,54.05
2018-09-09T07:16:55.195Z,54.49
2018-09-09T07:19:24.644Z,54.63
2018-09-09T07:21:54.098Z,54.76
2018-09-09T07:24:23.543Z,54.79
2018-09-09T07:26:52.935Z,55.12
2018-09-09T07:29:22.357Z,54.29
2018-09-09T07:31:51.944Z,54.24
2018-09-09T07:34:21.378Z,53.53
2018-09-09T07:36:50.678Z,53.68
2018-09-09T07:39:20.105Z,53.36
2018-09-09T07:41:49.507Z,54.52
2018-09-09T07:44:18.890Z,53.40
2018-09-09T07:46:48.597Z,53.81
2018-09-09T07:49:18.040Z,53.26
2018-09-09T07:51:47.405Z,52.93
2018-09-09T07:54:17.055Z,52.64
2018-09-09T07:56:46.812Z,52.11
2018-09-09T07:59:16.296Z,50.71
2018-09-09T08:01:45.752Z,51.34
2018-09-09T08:04:15.203Z,51.33
2018-09-09T08:06:44.665Z,49.26
2018-09-09T08:09:14.838Z,50.57
2018-09-09T08:11:44.288Z,49.80
2018-09-09T08:14:13.649Z,49.54
2018-09-09T08:16:43.182Z,48.60
2018-09-09T08:19:12.687Z,47.05
2018-09-09T08:21:42.112Z,47.85
2018-09-09T08:24:11.642Z,48.22
2018-09-09T08:26:41.122Z,48.55
2018-09-09T08:29:10.712Z,47.83
2018-09-09T08:31:40.160Z,48.14
2018-09-09T08:34:09.657Z,47.37
2018-09-09T08:36:38.948Z,47.64
2018-09-09T08:39:10.777Z,46.56
2018-09-09T08:41:40.489Z,46.41
2018-09-09T08:44:10.643Z,46.30
2018-09-09T08:46:40.424Z,44.86
2018-09-09T08:49:09.828Z,44.89
2018-09-09T08:51:39.353Z,42.33
2018-09-09T08:54:08.840Z,39.50
2018-09-09T08:56:38.547Z,31.14
2018-09-09T08:59:07.956Z,25.87
2018-09-09T09:01:37.391Z,22.52
2018-09-09T09:04:06.862Z,22.18
2018-09-09T09:06:36.181Z,21.30
2018-09-09T09:09:10.452Z,24.54
2018-09-09T09:11:40.264Z,24.41
2018-09-09T09:14:09.803Z,22.96
2018-09-09T09:16:39.224Z,20.37
2018-09-09T09:19:08.507Z,20.92
2018-09-09T09:21:37.885Z,20.52
2018-09-09T09:24:07.546Z,23.14
2018-09-09T09:26:37.020Z,20.80
2018-09-09T09:29:06.810Z,19.79
2018-09-09T09:31:36.345Z,19.67
2018-09-09T09:34:05.778Z,23.74
2018-09-09T09:36:35.244Z,23.32
2018-09-09T09:39:06.435Z,24.18
2018-09-09T09:41:35.932Z,23.47
2018-09-09T09:44:05.318Z,22.47
2018-09-09T09:46:34.826Z,22.21
2018-09-09T09:49:04.454Z,21.52
2018-09-09T09:51:33.894Z,18.97
2018-09-09T09:54:03.428Z,19.13
2018-09-09T09:56:33.554Z,18.32
2018-09-09T09:59:03.171Z,20.72
2018-09-09T10:01:32.699Z,20.71
2018-09-09T10:04:02.191Z,19.97
2018-09-09T10:06:31.540Z,19.81
2018-09-09T10:09:01.082Z,21.77
2018-09-09T10:11:30.552Z,21.09
2018-09-09T10:14:00.108Z,23.10
2018-09-09T10:16:29.961Z,23.68
2018-09-09T10:18:59.538Z,21.90
2018-09-09T10:21:28.997Z,23.80
2018-09-09T10:23:58.901Z,21.80
2018-09-09T10:26:28.356Z,19.75
2018-09-09T10:28:57.876Z,19.61
2018-09-09T10:31:27.385Z,19.61
2018-09-09T10:33:56.697Z,18.22
2018-09-09T10:36:26.411Z,18.57
2018-09-09T10:38:55.975Z,19.13
2018-09-09T10:41:25.396Z,17.98
2018-09-09T10:43:54.744Z,16.96
2018-09-09T10:46:24.322Z,17.05
2018-09-09T10:48:53.828Z,16.94
2018-09-09T10:51:23.203Z,17.48
2018-09-09T10:53:52.697Z,16.75
2018-09-09T10:56:22.161Z,17.55
2018-09-09T10:58:51.563Z,18.21
2018-09-09T11:01:21.542Z,17.95
2018-09-09T11:03:50.923Z,20.11
2018-09-09T11:06:20.325Z,19.73
2018-09-09T11:08:49.735Z,19.33
2018-09-09T11:11:19.281Z,18.85
2018-09-09T11:13:48.807Z,18.52
2018-09-09T11:16:18.275Z,16.84
2018-09-09T11:18:47.650Z,16.19
2018-09-09T11:21:17.023Z,16.20
2018-09-09T11:23:46.761Z,16.74
2018-09-09T11:26:16.294Z,15.96
2018-09-09T11:28:45.687Z,15.52
2018-09-09T11:31:15.076Z,14.88
2018-09-09T11:33:44.455Z,13.94
2018-09-09T11:36:14.932Z,13.54
2018-09-09T11:38:44.695Z,14.41
2018-09-09T11:41:14.178Z,13.87
2018-09-09T11:43:43.693Z,15.93
2018-09-09T11:46:13.385Z,15.97
2018-09-09T11:48:42.835Z,14.54
2018-09-09T11:51:12.285Z,14.16
2018-09-09T11:53:41.687Z,14.87
2018-09-09T11:56:11.101Z,16.77
2018-09-09T11:58:40.523Z,16.28
2018-09-09T12:01:09.976Z,16.59
2018-09-09T12:03:39.596Z,14.61
2018-09-09T12:06:09.043Z,15.11
2018-09-09T12:08:38.742Z,14.25
2018-09-09T12:11:08.174Z,14.22
2018-09-09T12:13:37.846Z,13.82
2018-09-09T12:16:07.226Z,12.78
2018-09-09T12:18:36.630Z,15.03
2018-09-09T12:21:06.268Z,14.62
2018-09-09T12:23:35.767Z,15.19
2018-09-09T12:26:05.244Z,16.62
2018-09-09T12:28:34.594Z,16.57
2018-09-09T12:31:04.351Z,17.06
2018-09-09T12:33:33.706Z,15.17
2018-09-09T12:36:03.152Z,16.26
2018-09-09T12:38:32.547Z,15.18
2018-09-09T12:41:01.914Z,15.24
2018-09-09T12:43:36.517Z,15.67
2018-09-09T12:46:11.278Z,15.00
2018-09-09T12:48:46.067Z,15.28
2018-09-09T12:51:15.468Z,17.82
2018-09-09T12:53:45.030Z,20.26
2018-09-09T12:56:14.404Z,21.76
2018-09-09T12:58:43.880Z,21.73
2018-09-09T13:01:13.530Z,21.33
2018-09-09T13:03:43.075Z,22.29
2018-09-09T13:06:12.649Z,23.93
2018-09-09T13:08:42.086Z,26.11
2018-09-09T13:11:12.303Z,25.62
2018-09-09T13:13:41.699Z,23.81
2018-09-09T13:16:11.288Z,23.15
2018-09-09T13:18:40.705Z,23.48
2018-09-09T13:21:10.233Z,22.91
2018-09-09T13:23:39.656Z,22.75
2018-09-09T13:26:09.150Z,21.82
2018-09-09T13:28:38.491Z,23.03
2018-09-09T13:31:07.860Z,23.76
2018-09-09T13:33:38.506Z,25.80
2018-09-09T13:36:07.928Z,24.94
2018-09-09T13:38:37.392Z,24.16
2018-09-09T13:41:06.932Z,22.77
2018-09-09T13:43:36.393Z,23.84
2018-09-09T13:46:05.835Z,25.07
2018-09-09T13:48:35.423Z,24.88
2018-09-09T13:51:04.751Z,25.44
2018-09-09T13:53:34.184Z,25.25
2018-09-09T13:56:03.928Z,24.25
2018-09-09T13:58:33.308Z,22.89
2018-09-09T14:01:02.718Z,22.26
2018-09-09T14:03:32.149Z,20.88
2018-09-09T14:06:01.516Z,23.58
2018-09-09T14:08:31.105Z,22.99
2018-09-09T14:11:00.506Z,21.50
2018-09-09T14:13:29.960Z,23.35
2018-09-09T14:15:59.463Z,22.25
2018-09-09T14:18:29.227Z,21.78
2018-09-09T14:20:59.125Z,23.26
2018-09-09T14:23:28.612Z,22.47
2018-09-09T14:25:58.058Z,22.32
2018-09-09T14:28:27.935Z,21.71
2018-09-09T14:30:57.370Z,22.04
2018-09-09T14:33:26.861Z,22.92
2018-09-09T14:35:56.222Z,23.00
2018-09-09T14:38:26.062Z,22.77
2018-09-09T14:40:55.614Z,25.17
2018-09-09T14:43:25.148Z,25.92
2018-09-09T14:45:54.646Z,25.34
2018-09-09T14:48:23.992Z,25.83
2018-09-09T14:50:53.497Z,25.88
2018-09-09T14:53:23.018Z,25.84
2018-09-09T14:55:52.535Z,26.61
2018-09-09T14:58:22.117Z,27.38
2018-09-09T15:00:51.553Z,27.54
2018-09-09T15:03:21.504Z,26.46
2018-09-09T15:05:50.874Z,27.18
2018-09-09T15:08:20.247Z,27.21
2018-09-09T15:10:49.720Z,28.34
2018-09-09T15:13:19.117Z,28.74
2018-09-09T15:15:48.518Z,29.12
2018-09-09T15:18:17.918Z,28.79
2018-09-09T15:20:50.736Z,28.79
2018-09-09T15:23:20.856Z,29.27
2018-09-09T15:25:50.537Z,29.53
2018-09-09T15:28:19.974Z,28.58
2018-09-09T15:30:49.538Z,29.56
2018-09-09T15:33:18.950Z,31.00
2018-09-09T15:35:48.479Z,31.57
2018-09-09T15:38:17.980Z,31.44
2018-09-09T15:40:47.602Z,30.38
2018-09-09T15:43:17.189Z,30.99
2018-09-09T15:45:46.803Z,31.27
2018-09-09T15:48:16.298Z,31.43
2018-09-09T15:50:45.972Z,31.07
2018-09-09T15:53:15.685Z,31.56
2018-09-09T15:55:45.352Z,31.79
2018-09-09T15:58:14.885Z,31.14
2018-09-09T16:00:44.653Z,31.62
2018-09-09T16:03:14.115Z,31.42
2018-09-09T16:05:43.588Z,30.15
2018-09-09T16:08:13.331Z,30.83
2018-09-09T16:10:43.232Z,30.08
2018-09-09T16:13:13.634Z,30.52
2018-09-09T16:15:43.215Z,30.53
2018-09-09T16:18:12.760Z,31.83
2018-09-09T16:20:42.341Z,31.23
2018-09-09T16:23:11.986Z,32.32
2018-09-09T16:25:41.896Z,32.23
2018-09-09T16:28:11.400Z,32.51
2018-09-09T16:30:52.529Z,32.37
2018-09-09T16:33:22.415Z,32.85
2018-09-09T16:35:51.862Z,33.60
2018-09-09T16:38:21.371Z,34.04
2018-09-09T16:40:50.859Z,34.36
2018-09-09T16:43:20.365Z,35.23
2018-09-09T16:45:49.790Z,36.16
2018-09-09T16:48:19.596Z,35.50
2018-09-09T16:50:49.411Z,36.84
2018-09-09T16:53:19.696Z,36.27
2018-09-09T16:55:49.371Z,36.02
2018-09-09T16:58:18.858Z,35.30
2018-09-09T17:00:48.381Z,36.35
2018-09-09T17:03:18.296Z,35.43
2018-09-09T17:05:47.828Z,35.27
2018-09-09T17:08:17.515Z,35.17
2018-09-09T17:10:47.095Z,35.56
2018-09-09T17:13:16.437Z,35.66
2018-09-09T17:15:46.294Z,35.87
2018-09-09T17:18:15.806Z,36.28
2018-09-09T17:20:45.522Z,37.33
2018-09-09T17:23:14.916Z,37.21
2018-09-09T17:25:44.241Z,37.40
2018-09-09T17:28:13.752Z,36.87
2018-09-09T17:30:43.415Z,37.59
2018-09-09T17:33:13.078Z,37.23
2018-09-09T17:35:42.806Z,37.07
2018-09-09T17:38:13.292Z,37.72
2018-09-09T17:40:43.117Z,38.10
2018-09-09T17:43:12.990Z,37.85
2018-09-09T17:45:42.457Z,37.52
2018-09-09T17:48:12.330Z,38.46
2018-09-09T17:50:42.201Z,38.66
2018-09-09T17:53:11.964Z,39.10
2018-09-09T17:55:41.749Z,39.02
2018-09-09T17:58:11.605Z,38.04
2018-09-09T18:00:42.213Z,38.37
2018-09-09T18:03:11.642Z,38.15
2018-09-09T18:05:41.533Z,39.44
2018-09-09T18:08:11.069Z,39.07
2018-09-09T18:10:40.440Z,38.88
2018-09-09T18:13:09.960Z,38.88
2018-09-09T18:15:42.225Z,39.93
2018-09-09T18:18:12.166Z,40.23
2018-09-09T18:20:41.903Z,40.63
2018-09-09T18:23:11.658Z,40.58
2018-09-09T18:25:41.097Z,41.25
2018-09-09T18:28:11.296Z,41.66
2018-09-09T18:30:40.799Z,42.30
2018-09-09T18:33:10.244Z,42.66
2018-09-09T18:35:39.800Z,41.82
2018-09-09T18:38:09.369Z,43.14
2018-09-09T18:40:38.800Z,43.39
2018-09-09T18:43:08.460Z,43.26
2018-09-09T18:45:38.242Z,43.23
2018-09-09T18:48:09.486Z,44.34
2018-09-09T18:50:39.194Z,44.37
2018-09-09T18:53:08.695Z,44.84
2018-09-09T18:55:38.283Z,44.78
2018-09-09T18:58:08.085Z,44.94
2018-09-09T19:00:37.565Z,45.11
2018-09-09T19:03:07.704Z,45.66
2018-09-09T19:05:37.395Z,45.49
2018-09-09T19:08:07.365Z,46.81
2018-09-09T19:10:36.884Z,45.24
2018-09-09T19:13:07.993Z,45.99
2018-09-09T19:15:37.557Z,45.63
2018-09-09T19:18:07.146Z,46.04
2018-09-09T19:20:36.793Z,47.30
2018-09-09T19:23:06.456Z,47.37
2018-09-09T19:25:36.321Z,47.13
2018-09-09T19:28:05.894Z,47.70
2018-09-09T19:30:36.018Z,47.49
2018-09-09T19:33:05.959Z,48.68
2018-09-09T19:35:36.053Z,48.39
2018-09-09T19:38:05.977Z,48.64
2018-09-09T19:40:35.518Z,49.36
2018-09-09T19:43:05.148Z,50.03
2018-09-09T19:45:34.664Z,49.07
2018-09-09T19:48:04.366Z,50.24
2018-09-09T19:50:34.045Z,49.90
2018-09-09T19:53:03.453Z,50.20
2018-09-09T19:55:32.927Z,50.95
2018-09-09T19:58:02.393Z,51.06
2018-09-09T20:00:32.090Z,50.51
2018-09-09T20:03:01.857Z,51.34
2018-09-09T20:05:31.402Z,50.46
2018-09-09T20:08:01.079Z,51.21
2018-09-09T20:10:30.524Z,51.41
2018-09-09T20:13:00.817Z,52.04
2018-09-09T20:15:30.305Z,52.13
2018-09-09T20:17:59.635Z,52.75
2018-09-09T20:20:29.043Z,52.83
2018-09-09T20:22:58.617Z,53.07
2018-09-09T20:25:27.992Z,53.21
2018-09-09T20:27:57.498Z,52.18
2018-09-09T20:30:27.589Z,52.73
2018-09-09T20:32:59.607Z,53.04
2018-09-09T20:35:29.298Z,53.26
2018-09-09T20:37:59.020Z,53.33
2018-09-09T20:40:28.758Z,52.90
2018-09-09T20:42:58.705Z,53.63
2018-09-09T20:45:33.167Z,52.83
2018-09-09T20:48:03.276Z,54.06
2018-09-09T20:50:33.016Z,53.86
2018-09-09T20:53:02.931Z,53.79
2018-09-09T20:55:32.501Z,53.70
2018-09-09T20:58:02.044Z,53.31
2018-09-09T21:00:31.619Z,54.54
2018-09-09T21:03:01.289Z,54.40
2018-09-09T21:05:30.832Z,54.62
2018-09-09T21:08:01.335Z,55.14
2018-09-09T21:10:31.177Z,55.23
2018-09-09T21:13:01.108Z,55.79
2018-09-09T21:15:30.936Z,55.34
2018-09-09T21:18:00.352Z,55.24
2018-09-09T21:20:29.785Z,55.81
2018-09-09T21:22:59.318Z,55.97
2018-09-09T21:25:28.776Z,56.91
2018-09-09T21:27:58.185Z,56.16
2018-09-09T21:30:27.729Z,55.76
2018-09-09T21:32:57.283Z,55.97
2018-09-09T21:35:26.672Z,56.80
2018-09-09T21:37:56.120Z,55.93
2018-09-09T21:40:26.003Z,56.14
2018-09-09T21:42:55.642Z,56.12
2018-09-09T21:45:25.252Z,57.00
2018-09-09T21:47:54.627Z,56.28
2018-09-09T21:50:24.118Z,56.41
2018-09-09T21:52:53.525Z,56.60
2018-09-09T21:55:22.986Z,56.40
2018-09-09T21:57:52.781Z,56.49
2018-09-09T22:00:22.476Z,56.62
2018-09-09T22:02:51.851Z,57.21
2018-09-09T22:05:21.381Z,56.51
2018-09-09T22:07:50.876Z,57.69
2018-09-09T22:10:20.239Z,57.78
2018-09-09T22:12:50.775Z,57.16
2018-09-09T22:15:21.103Z,57.90
2018-09-09T22:17:50.695Z,57.60
2018-09-09T22:20:20.152Z,57.96
2018-09-09T22:22:49.641Z,58.74
2018-09-09T22:25:19.398Z,59.13
2018-09-09T22:27:48.738Z,59.26
2018-09-09T22:30:18.221Z,58.62
2018-09-09T22:32:48.600Z,59.23
2018-09-09T22:35:19.719Z,58.09
2018-09-09T22:37:49.372Z,57.71
2018-09-09T22:40:18.820Z,58.57
2018-09-09T22:42:48.390Z,58.63
2018-09-09T22:45:17.887Z,58.96
2018-09-09T22:47:47.483Z,58.11
2018-09-09T22:50:16.874Z,57.93
2018-09-09T22:52:46.266Z,58.35
2018-09-09T22:55:15.743Z,58.22
2018-09-09T22:57:45.277Z,58.49
2018-09-09T23:00:14.780Z,58.69
2018-09-09T23:02:44.214Z,59.56
2018-09-09T23:05:13.966Z,59.18
2018-09-09T23:07:43.452Z,58.29
2018-09-09T23:10:12.746Z,57.79
2018-09-09T23:12:42.122Z,57.90
2018-09-09T23:15:11.476Z,57.41
2018-09-09T23:17:40.996Z,57.13
2018-09-09T23:20:10.459Z,57.86
2018-09-09T23:22:39.797Z,57.53
2018-09-09T23:25:09.287Z,57.87
2018-09-09T23:27:38.946Z,57.46
2018-09-09T23:30:08.247Z,57.65
2018-09-09T23:32:37.608Z,57.94
2018-09-09T23:35:07.009Z,57.50
2018-09-09T23:37:36.410Z,57.86
2018-09-09T23:40:05.956Z,58.64
2018-09-09T23:42:35.287Z,58.20
2018-09-09T23:45:04.913Z,58.74
2018-09-09T23:47:34.636Z,58.07
2018-09-09T23:50:04.311Z,58.17
2018-09-09T23:52:33.723Z,58.66
2018-09-09T23:55:03.072Z,58.36
2018-09-09T23:57:32.472Z,58.76
